createdAt,value
2022-10-05T00:02:23.896Z,9.35
2022-10-05T00:05:22.782Z,9.10
2022-10-05T00:08:15.654Z,9.40
2022-10-05T00:11:08.545Z,8.90
2022-10-05T00:13:57.082Z,8.80
2022-10-05T00:16:46.718Z,8.30
2022-10-05T00:19:38.183Z,8.35
2022-10-05T00:22:32.882Z,9.18
2022-10-05T00:25:23.494Z,8.15
2022-10-05T00:28:23.075Z,8.68
2022-10-05T00:31:18.222Z,8.63
2022-10-05T00:34:06.920Z,8.60
2022-10-05T00:36:55.732Z,8.35
2022-10-05T00:39:44.474Z,8.00
2022-10-05T00:42:52.904Z,8.30
2022-10-05T00:45:47.155Z,8.82
2022-10-05T00:48:44.414Z,8.65
2022-10-05T00:51:37.346Z,8.75
2022-10-05T00:54:35.202Z,8.57
2022-10-05T00:57:34.044Z,7.88
2022-10-05T01:00:26.043Z,8.05
2022-10-05T01:03:22.824Z,8.75
2022-10-05T01:06:23.620Z,7.78
2022-10-05T01:09:22.678Z,8.07
2022-10-05T01:12:20.643Z,7.45
2022-10-05T01:15:13.944Z,7.53
2022-10-05T01:18:08.634Z,8.05
2022-10-05T01:21:05.070Z,8.07
2022-10-05T01:24:22.136Z,7.38
2022-10-05T01:27:22.753Z,7.50
2022-10-05T01:30:16.949Z,7.30
2022-10-05T01:33:14.985Z,7.70
2022-10-05T01:36:11.102Z,7.40
2022-10-05T01:39:07.355Z,7.80
2022-10-05T01:42:04.954Z,7.32
2022-10-05T01:44:59.541Z,7.40
2022-10-05T01:47:53.082Z,7.03
2022-10-05T01:50:52.339Z,6.70
2022-10-05T01:53:53.042Z,7.50
2022-10-05T01:56:51.803Z,7.30
2022-10-05T01:59:53.035Z,7.45
2022-10-05T02:02:47.277Z,7.25
2022-10-05T02:05:44.806Z,6.82
2022-10-05T02:08:40.251Z,6.72
2022-10-05T02:11:29.486Z,7.07
2022-10-05T02:14:23.748Z,6.75
2022-10-05T02:17:18.541Z,7.45
2022-10-05T02:20:11.490Z,7.35
2022-10-05T02:23:06.188Z,7.72
2022-10-05T02:25:57.346Z,7.50
2022-10-05T02:28:51.638Z,7.35
2022-10-05T02:31:46.217Z,7.43
2022-10-05T02:34:39.360Z,8.27
2022-10-05T02:37:45.744Z,8.30
2022-10-05T02:40:45.569Z,8.30
2022-10-05T02:43:46.363Z,8.02
2022-10-05T02:46:41.665Z,8.20
2022-10-05T02:49:41.250Z,8.82
2022-10-05T02:52:37.913Z,8.65
2022-10-05T02:55:34.973Z,8.30
2022-10-05T02:58:29.122Z,8.75
2022-10-05T03:01:25.436Z,8.40
2022-10-05T03:04:27.078Z,8.35
2022-10-05T03:07:19.730Z,8.95
2022-10-05T03:10:14.215Z,8.65
2022-10-05T03:13:09.538Z,8.65
2022-10-05T03:16:14.023Z,8.80
2022-10-05T03:19:14.165Z,9.13
2022-10-05T03:22:20.670Z,8.48
2022-10-05T03:25:36.191Z,8.52
2022-10-05T03:28:32.755Z,8.48
2022-10-05T03:31:29.707Z,8.93
2022-10-05T03:34:24.539Z,8.75
2022-10-05T03:37:21.850Z,8.90
2022-10-05T03:40:23.952Z,9.20
2022-10-05T03:43:33.964Z,8.85
2022-10-05T03:46:37.622Z,9.00
2022-10-05T03:49:41.393Z,8.40
2022-10-05T03:52:37.633Z,8.95
2022-10-05T03:55:32.663Z,9.02
2022-10-05T03:58:26.780Z,8.75
2022-10-05T04:01:20.655Z,10.02
2022-10-05T04:04:14.892Z,8.95
2022-10-05T04:07:04.152Z,8.80
2022-10-05T04:09:55.984Z,8.93
2022-10-05T04:12:50.516Z,8.23
2022-10-05T04:15:46.046Z,9.00
2022-10-05T04:18:38.992Z,9.00
2022-10-05T04:21:33.561Z,8.52
2022-10-05T04:24:27.605Z,8.85
2022-10-05T04:27:19.604Z,9.00
2022-10-05T04:30:14.498Z,9.40
2022-10-05T04:33:03.452Z,8.88
2022-10-05T04:36:18.899Z,8.43
2022-10-05T04:39:19.992Z,8.65
2022-10-05T04:42:14.376Z,9.13
2022-10-05T04:45:15.807Z,8.40
2022-10-05T04:48:41.691Z,8.90
2022-10-05T04:51:39.158Z,9.40
2022-10-05T04:54:45.360Z,9.57
2022-10-05T04:57:42.485Z,8.93
2022-10-05T05:00:44.649Z,8.85
2022-10-05T05:03:46.908Z,8.80
2022-10-05T05:06:43.391Z,9.15
2022-10-05T05:10:04.165Z,8.85
2022-10-05T05:13:05.220Z,9.25
2022-10-05T05:16:00.737Z,8.82
2022-10-05T05:19:07.672Z,8.27
2022-10-05T05:22:04.145Z,9.38
2022-10-05T05:25:13.326Z,9.30
2022-10-05T05:28:16.975Z,9.40
2022-10-05T05:31:13.513Z,8.65
2022-10-05T05:34:11.580Z,9.15
2022-10-05T05:37:07.698Z,9.23
2022-10-05T05:40:04.678Z,9.18
2022-10-05T05:43:00.387Z,9.35
2022-10-05T05:45:58.711Z,8.98
2022-10-05T05:48:48.951Z,9.57
2022-10-05T05:51:42.329Z,9.40
2022-10-05T05:54:36.295Z,9.13
2022-10-05T05:57:31.063Z,9.82
2022-10-05T06:00:25.148Z,9.52
2022-10-05T06:03:24.247Z,9.25
2022-10-05T06:06:16.928Z,9.82
2022-10-05T06:09:19.367Z,9.27
2022-10-05T06:12:25.459Z,9.25
2022-10-05T06:15:25.918Z,9.07
2022-10-05T06:18:18.144Z,9.57
2022-10-05T06:21:17.008Z,10.10
2022-10-05T06:24:13.920Z,9.70
2022-10-05T06:27:37.865Z,9.32
2022-10-05T06:30:37.278Z,9.90
2022-10-05T06:33:44.158Z,9.57
2022-10-05T06:36:42.025Z,9.55
2022-10-05T06:39:49.186Z,9.30
2022-10-05T06:42:52.760Z,9.02
2022-10-05T06:46:07.293Z,8.55
2022-10-05T06:49:22.670Z,9.40
2022-10-05T06:52:38.212Z,9.15
2022-10-05T06:55:39.659Z,9.10
2022-10-05T06:58:52.805Z,8.35
2022-10-05T07:01:54.044Z,9.13
2022-10-05T07:05:04.568Z,8.88
2022-10-05T07:07:57.890Z,8.75
2022-10-05T07:11:01.116Z,8.10
2022-10-05T07:14:09.919Z,8.77
2022-10-05T07:17:17.897Z,9.10
2022-10-05T07:20:18.258Z,8.82
2022-10-05T07:23:27.797Z,8.45
2022-10-05T07:26:21.791Z,8.80
2022-10-05T07:29:29.431Z,8.70
2022-10-05T07:32:34.032Z,8.32
2022-10-05T07:35:50.679Z,7.63
2022-10-05T07:38:44.201Z,7.50
2022-10-05T07:41:41.349Z,6.95
2022-10-05T07:44:36.464Z,7.63
2022-10-05T07:47:36.521Z,8.35
2022-10-05T07:50:29.594Z,8.05
2022-10-05T07:53:24.368Z,7.40
2022-10-05T07:56:22.067Z,7.07
2022-10-05T07:59:17.932Z,7.65
2022-10-05T08:02:17.197Z,6.75
2022-10-05T08:05:14.453Z,6.63
2022-10-05T08:08:14.247Z,6.25
2022-10-05T08:11:14.926Z,6.85
2022-10-05T08:14:11.234Z,6.75
2022-10-05T08:17:03.602Z,6.38
2022-10-05T08:19:58.632Z,5.97
2022-10-05T08:22:54.246Z,6.10
2022-10-05T08:25:51.974Z,6.38
2022-10-05T08:28:47.336Z,5.65
2022-10-05T08:31:39.331Z,5.95
2022-10-05T08:34:31.916Z,5.80
2022-10-05T08:37:23.768Z,5.70
2022-10-05T08:40:42.030Z,5.55
2022-10-05T08:43:51.633Z,5.05
2022-10-05T08:47:08.770Z,5.38
2022-10-05T08:50:12.916Z,5.35
2022-10-05T08:53:19.544Z,5.57
2022-10-05T08:56:41.004Z,5.55
2022-10-05T08:59:58.421Z,5.03
2022-10-05T09:03:15.249Z,5.40
2022-10-05T09:06:25.167Z,5.60
2022-10-05T09:09:32.862Z,5.55
2022-10-05T09:12:47.610Z,5.72
2022-10-05T09:15:57.844Z,5.68
2022-10-05T09:19:29.767Z,5.70
2022-10-05T09:22:30.319Z,5.10
2022-10-05T09:25:25.126Z,5.68
2022-10-05T09:28:25.501Z,4.72
2022-10-05T09:31:36.574Z,5.35
2022-10-05T09:34:56.797Z,6.18
2022-10-05T09:38:16.110Z,5.68
2022-10-05T09:41:39.475Z,5.63
2022-10-05T09:45:10.480Z,6.13
2022-10-05T09:48:22.257Z,5.32
2022-10-05T09:51:49.666Z,5.20
2022-10-05T09:55:03.158Z,5.20
2022-10-05T09:58:28.503Z,5.35
2022-10-05T10:01:42.362Z,5.50
2022-10-05T10:05:07.830Z,5.30
2022-10-05T10:08:20.597Z,5.55
2022-10-05T10:11:31.926Z,5.55
2022-10-05T10:14:42.672Z,5.40
2022-10-05T10:17:54.233Z,5.22
2022-10-05T10:21:04.631Z,4.90
2022-10-05T10:24:04.884Z,4.55
2022-10-05T10:27:17.557Z,4.75
2022-10-05T10:30:39.090Z,4.38
2022-10-05T10:33:50.398Z,4.45
2022-10-05T10:37:00.113Z,4.45
2022-10-05T10:40:10.064Z,3.70
2022-10-05T10:43:29.519Z,4.00
2022-10-05T10:46:32.962Z,4.22
2022-10-05T10:49:39.847Z,3.97
2022-10-05T10:52:49.173Z,4.57
2022-10-05T10:55:47.992Z,3.50
2022-10-05T10:59:05.558Z,4.32
2022-10-05T11:02:24.613Z,3.78
2022-10-05T11:05:31.265Z,4.03
2022-10-05T11:09:01.453Z,3.72
2022-10-05T11:12:34.666Z,4.53
2022-10-05T11:15:52.872Z,4.20
2022-10-05T11:18:54.300Z,4.03
2022-10-05T11:21:58.422Z,3.90
2022-10-05T11:25:03.256Z,3.60
2022-10-05T11:28:05.685Z,3.75
2022-10-05T11:31:26.495Z,4.32
2022-10-05T11:35:00.307Z,3.97
2022-10-05T11:38:13.324Z,4.18
2022-10-05T11:41:24.709Z,3.55
2022-10-05T11:44:55.129Z,3.90
2022-10-05T11:48:07.310Z,3.38
2022-10-05T11:51:16.845Z,3.70
2022-10-05T11:54:25.869Z,3.10
2022-10-05T11:57:19.193Z,3.42
2022-10-05T12:00:16.304Z,3.45
2022-10-05T12:03:27.846Z,3.80
2022-10-05T12:06:36.734Z,3.30
2022-10-05T12:10:02.338Z,3.85
2022-10-05T12:13:09.020Z,3.85
2022-10-05T12:16:04.251Z,4.25
2022-10-05T12:19:01.768Z,4.05
2022-10-05T12:21:55.709Z,4.13
2022-10-05T12:25:01.885Z,4.20
2022-10-05T12:27:54.884Z,4.53
2022-10-05T12:31:22.046Z,4.47
2022-10-05T12:34:20.928Z,4.30
2022-10-05T12:37:18.380Z,5.32
2022-10-05T12:40:20.149Z,4.60
2022-10-05T12:43:18.666Z,4.70
2022-10-05T12:46:17.862Z,4.75
2022-10-05T12:49:42.982Z,4.60
2022-10-05T12:52:56.099Z,5.00
2022-10-05T12:55:54.608Z,4.45
2022-10-05T12:58:52.649Z,4.95
2022-10-05T13:01:48.017Z,4.70
2022-10-05T13:04:48.093Z,5.30
2022-10-05T13:07:49.760Z,5.43
2022-10-05T13:10:44.247Z,5.20
2022-10-05T13:13:42.499Z,5.20
2022-10-05T13:16:41.431Z,4.35
2022-10-05T13:19:40.470Z,4.85
2022-10-05T13:22:36.733Z,5.10
2022-10-05T13:25:30.845Z,4.93
2022-10-05T13:28:26.097Z,4.40
2022-10-05T13:31:20.024Z,5.50
2022-10-05T13:34:18.844Z,5.20
2022-10-05T13:37:13.554Z,5.15
2022-10-05T13:40:18.723Z,4.82
2022-10-05T13:43:17.716Z,4.65
2022-10-05T13:46:12.908Z,4.80
2022-10-05T13:49:15.918Z,4.88
2022-10-05T13:52:16.460Z,4.82
2022-10-05T13:55:17.959Z,5.28
2022-10-05T13:58:13.939Z,5.00
2022-10-05T14:01:08.242Z,4.82
2022-10-05T14:04:17.696Z,5.70
2022-10-05T14:07:25.368Z,5.10
2022-10-05T14:10:29.269Z,5.75
2022-10-05T14:13:33.013Z,5.95
2022-10-05T14:16:23.676Z,5.32
2022-10-05T14:19:22.918Z,5.75
2022-10-05T14:22:14.698Z,5.05
2022-10-05T14:25:18.395Z,5.00
2022-10-05T14:28:28.813Z,5.00
2022-10-05T14:31:29.847Z,5.90
2022-10-05T14:34:32.268Z,4.82
2022-10-05T14:37:22.892Z,4.93
2022-10-05T14:40:31.386Z,4.97
2022-10-05T14:43:21.840Z,5.22
2022-10-05T14:46:28.159Z,5.78
2022-10-05T14:49:22.577Z,4.90
2022-10-05T14:52:32.652Z,5.00
2022-10-05T14:55:51.065Z,5.38
2022-10-05T14:58:55.671Z,6.38
2022-10-05T15:01:52.829Z,5.43
2022-10-05T15:04:45.406Z,5.78
2022-10-05T15:07:39.438Z,5.30
2022-10-05T15:10:36.944Z,5.00
2022-10-05T15:13:32.315Z,5.70
2022-10-05T15:16:25.451Z,5.40
2022-10-05T15:19:20.960Z,5.28
2022-10-05T15:22:23.931Z,5.38
2022-10-05T15:25:16.553Z,5.53
2022-10-05T15:28:13.241Z,5.60
2022-10-05T15:31:06.807Z,4.95
2022-10-05T15:34:02.596Z,4.85
2022-10-05T15:36:59.342Z,5.10
2022-10-05T15:39:52.479Z,5.07
2022-10-05T15:42:43.202Z,5.55
2022-10-05T15:45:34.462Z,5.47
2022-10-05T15:48:31.223Z,5.00
2022-10-05T15:51:29.210Z,5.03
2022-10-05T15:54:44.126Z,5.53
2022-10-05T15:57:42.397Z,5.15
2022-10-05T16:00:39.267Z,5.35
2022-10-05T16:03:44.788Z,5.35
2022-10-05T16:07:01.115Z,4.95
2022-10-05T16:09:58.475Z,5.63
2022-10-05T16:13:04.508Z,5.60
2022-10-05T16:16:02.095Z,5.05
2022-10-05T16:19:01.110Z,5.40
2022-10-05T16:21:57.971Z,5.45
2022-10-05T16:25:03.995Z,5.28
2022-10-05T16:28:05.679Z,5.00
2022-10-05T16:31:02.063Z,5.40
2022-10-05T16:34:06.633Z,6.10
2022-10-05T16:37:02.655Z,5.57
2022-10-05T16:39:59.750Z,5.75
2022-10-05T16:43:00.981Z,6.32
2022-10-05T16:45:59.352Z,5.82
2022-10-05T16:49:00.436Z,5.60
2022-10-05T16:51:57.775Z,5.65
2022-10-05T16:54:49.986Z,5.70
2022-10-05T16:57:42.499Z,5.50
2022-10-05T17:00:40.882Z,5.90
2022-10-05T17:03:41.732Z,5.35
2022-10-05T17:06:54.034Z,5.65
2022-10-05T17:10:11.333Z,5.80
2022-10-05T17:13:13.628Z,5.65
2022-10-05T17:16:09.222Z,5.70
2022-10-05T17:19:32.751Z,6.30
2022-10-05T17:22:29.646Z,6.13
2022-10-05T17:25:24.817Z,6.38
2022-10-05T17:28:23.142Z,6.53
2022-10-05T17:31:18.392Z,6.68
2022-10-05T17:34:27.605Z,6.82
2022-10-05T17:37:36.795Z,6.60
2022-10-05T17:40:36.436Z,6.40
2022-10-05T17:43:26.734Z,6.78
2022-10-05T17:46:39.673Z,6.90
2022-10-05T17:50:08.341Z,6.82
2022-10-05T17:53:38.820Z,7.20
2022-10-05T17:56:27.640Z,6.63
2022-10-05T17:59:39.819Z,7.00
2022-10-05T18:02:44.278Z,7.43
2022-10-05T18:05:34.182Z,7.60
2022-10-05T18:08:37.612Z,6.90
2022-10-05T18:11:41.233Z,7.22
2022-10-05T18:14:50.446Z,7.30
2022-10-05T18:17:46.396Z,7.00
2022-10-05T18:20:35.764Z,6.70
2022-10-05T18:23:35.586Z,6.63
2022-10-05T18:26:37.790Z,6.78
2022-10-05T18:30:00.891Z,6.90
2022-10-05T18:33:20.735Z,6.30
2022-10-05T18:36:28.652Z,7.00
2022-10-05T18:39:33.633Z,6.20
2022-10-05T18:42:32.210Z,6.78
2022-10-05T18:45:26.306Z,7.13
2022-10-05T18:48:24.139Z,6.40
2022-10-05T18:51:21.517Z,6.53
2022-10-05T18:54:25.069Z,6.53
2022-10-05T18:57:51.581Z,6.15
2022-10-05T19:01:04.613Z,6.32
2022-10-05T19:04:04.698Z,6.30
2022-10-05T19:07:07.884Z,6.47
2022-10-05T19:10:09.921Z,6.38
2022-10-05T19:13:11.987Z,5.90
2022-10-05T19:16:15.241Z,6.50
2022-10-05T19:19:33.604Z,6.13
2022-10-05T19:22:37.934Z,7.03
2022-10-05T19:25:39.143Z,6.13
2022-10-05T19:28:33.220Z,6.38
2022-10-05T19:31:31.349Z,6.10
2022-10-05T19:34:36.381Z,6.05
2022-10-05T19:37:33.339Z,6.32
2022-10-05T19:40:29.258Z,6.25
2022-10-05T19:43:54.257Z,6.30
2022-10-05T19:46:55.423Z,6.43
2022-10-05T19:49:50.301Z,6.72
2022-10-05T19:52:46.354Z,6.03
2022-10-05T19:55:41.748Z,6.15
2022-10-05T19:58:33.312Z,6.05
2022-10-05T20:01:30.998Z,6.35
2022-10-05T20:04:34.114Z,6.53
2022-10-05T20:07:23.436Z,6.68
2022-10-05T20:10:29.672Z,6.82
2022-10-05T20:13:23.321Z,6.70
2022-10-05T20:16:47.966Z,6.63
2022-10-05T20:19:57.193Z,6.88
2022-10-05T20:22:47.398Z,6.78
2022-10-05T20:25:40.339Z,6.85
2022-10-05T20:28:32.653Z,6.70
2022-10-05T20:31:22.319Z,7.18
2022-10-05T20:34:13.150Z,7.63
2022-10-05T20:37:01.843Z,7.68
2022-10-05T20:39:51.561Z,8.52
2022-10-05T20:42:40.125Z,7.45
2022-10-05T20:45:28.657Z,6.70
2022-10-05T20:48:17.551Z,7.65
2022-10-05T20:51:07.785Z,7.13
2022-10-05T20:53:57.307Z,7.40
2022-10-05T20:56:46.258Z,7.60
2022-10-05T20:59:35.853Z,7.03
2022-10-05T21:02:27.283Z,7.43
2022-10-05T21:05:18.310Z,6.95
2022-10-05T21:08:08.353Z,7.47
2022-10-05T21:10:56.927Z,7.65
2022-10-05T21:13:47.191Z,7.53
2022-10-05T21:16:38.277Z,7.05
2022-10-05T21:19:27.433Z,7.13
2022-10-05T21:22:16.078Z,7.57
2022-10-05T21:25:09.054Z,7.90
2022-10-05T21:27:57.771Z,7.82
2022-10-05T21:30:46.396Z,7.13
2022-10-05T21:33:34.997Z,7.65
2022-10-05T21:36:24.964Z,7.20
2022-10-05T21:39:13.580Z,7.68
2022-10-05T21:42:03.961Z,7.38
2022-10-05T21:44:52.482Z,7.35
2022-10-05T21:47:41.560Z,7.00
2022-10-05T21:50:30.411Z,7.32
2022-10-05T21:53:22.279Z,7.45
2022-10-05T21:56:15.491Z,7.18
2022-10-05T21:59:08.795Z,7.38
2022-10-05T22:01:57.453Z,7.18
2022-10-05T22:04:46.272Z,7.68
2022-10-05T22:07:35.127Z,7.80
2022-10-05T22:10:23.644Z,7.78
2022-10-05T22:13:12.284Z,7.57
2022-10-05T22:16:02.289Z,7.47
2022-10-05T22:18:53.599Z,7.30
2022-10-05T22:21:42.767Z,7.50
2022-10-05T22:24:31.330Z,7.45
2022-10-05T22:27:20.695Z,7.07
2022-10-05T22:30:10.329Z,7.43
2022-10-05T22:33:00.150Z,7.30
2022-10-05T22:35:48.761Z,7.30
2022-10-05T22:38:37.315Z,7.30
2022-10-05T22:41:25.832Z,7.28
2022-10-05T22:44:14.557Z,7.70
2022-10-05T22:47:04.846Z,7.53
2022-10-05T22:49:55.268Z,7.50
2022-10-05T22:52:43.965Z,7.90
2022-10-05T22:55:32.555Z,7.75
2022-10-05T22:58:21.506Z,7.10
2022-10-05T23:01:11.857Z,7.30
2022-10-05T23:04:00.545Z,8.07
2022-10-05T23:06:50.581Z,7.40
2022-10-05T23:09:39.180Z,7.68
2022-10-05T23:12:30.343Z,6.82
2022-10-05T23:15:18.954Z,6.95
2022-10-05T23:18:07.659Z,7.07
2022-10-05T23:20:56.713Z,7.03
2022-10-05T23:23:49.063Z,7.20
2022-10-05T23:26:37.641Z,7.20
2022-10-05T23:29:28.311Z,7.05
2022-10-05T23:32:16.861Z,6.75
2022-10-05T23:35:06.350Z,7.43
2022-10-05T23:37:55.126Z,7.22
2022-10-05T23:40:48.599Z,7.03
2022-10-05T23:43:38.080Z,7.18
2022-10-05T23:46:26.897Z,6.95
2022-10-05T23:49:16.146Z,7.20
2022-10-05T23:52:04.709Z,6.80
2022-10-05T23:54:53.326Z,7.00
2022-10-05T23:57:43.399Z,6.90
